createdAt,value
2022-10-24T00:01:44.309Z,99934.47
2022-10-24T00:04:24.075Z,99938.56
2022-10-24T00:07:06.610Z,99929.53
2022-10-24T00:09:47.343Z,99927.41
2022-10-24T00:12:26.802Z,99932.97
2022-10-24T00:15:07.215Z,99936.84
2022-10-24T00:17:46.303Z,99938.94
2022-10-24T00:20:28.205Z,99940.72
2022-10-24T00:23:07.544Z,99948.09
2022-10-24T00:25:47.343Z,99952.81
2022-10-24T00:28:29.324Z,99959.69
2022-10-24T00:31:08.768Z,99949.88
2022-10-24T00:33:48.579Z,99951.44
2022-10-24T00:36:30.262Z,99950.41
2022-10-24T00:39:09.587Z,99952.66
2022-10-24T00:42:08.642Z,99945.63
2022-10-24T00:44:50.210Z,99951.72
2022-10-24T00:47:29.870Z,99943.66
2022-10-24T00:50:12.863Z,99938.88
2022-10-24T00:52:52.678Z,99937.53
2022-10-24T00:55:34.482Z,99946.03
2022-10-24T00:58:13.866Z,99937.03
2022-10-24T01:00:56.136Z,99940.66
2022-10-24T01:03:35.260Z,99950.63
2022-10-24T01:06:18.412Z,99949.91
2022-10-24T01:09:00.430Z,99948.63
2022-10-24T01:11:54.591Z,99945.78
2022-10-24T01:14:40.182Z,99944.78
2022-10-24T01:17:21.540Z,99939.53
2022-10-24T01:20:23.258Z,99948.63
2022-10-24T01:23:39.758Z,99959.22
2022-10-24T01:26:24.243Z,99949.78
2022-10-24T01:29:06.815Z,99932.00
2022-10-24T01:31:46.871Z,99928.56
2022-10-24T01:34:27.659Z,99922.91
2022-10-24T01:37:08.887Z,99906.41
2022-10-24T01:39:49.775Z,99886.06
2022-10-24T01:42:28.864Z,99874.81
2022-10-24T01:45:09.700Z,99866.25
2022-10-24T01:47:49.566Z,99869.97
2022-10-24T01:50:28.364Z,99849.50
2022-10-24T01:53:10.162Z,99851.78
2022-10-24T01:55:49.962Z,99854.47
2022-10-24T01:58:30.566Z,99847.75
2022-10-24T02:01:11.316Z,99847.97
2022-10-24T02:03:51.274Z,99845.31
2022-10-24T02:06:30.859Z,99843.91
2022-10-24T02:09:10.929Z,99839.63
2022-10-24T02:11:50.430Z,99840.09
2022-10-24T02:14:31.771Z,99833.09
2022-10-24T02:17:53.633Z,99829.22
2022-10-24T02:20:35.007Z,99821.00
2022-10-24T02:23:16.484Z,99807.03
2022-10-24T02:25:56.221Z,99804.53
2022-10-24T02:28:36.225Z,99817.91
2022-10-24T02:31:17.340Z,99834.94
2022-10-24T02:33:57.084Z,99834.47
2022-10-24T02:36:38.924Z,99833.03
2022-10-24T02:39:18.291Z,99825.84
2022-10-24T02:41:57.297Z,99824.19
2022-10-24T02:44:36.256Z,99828.28
2022-10-24T02:47:18.105Z,99824.59
2022-10-24T02:49:57.473Z,99831.34
2022-10-24T02:52:39.299Z,99827.00
2022-10-24T02:55:18.671Z,99816.72
2022-10-24T02:57:58.505Z,99805.59
2022-10-24T03:00:39.554Z,99807.22
2022-10-24T03:03:19.819Z,99815.63
2022-10-24T03:06:01.563Z,99822.38
2022-10-24T03:08:40.197Z,99820.09
2022-10-24T03:11:19.140Z,99829.72
2022-10-24T03:13:59.002Z,99826.38
2022-10-24T03:16:38.750Z,99822.84
2022-10-24T03:19:18.539Z,99823.22
2022-10-24T03:22:13.002Z,99820.31
2022-10-24T03:24:55.625Z,99819.28
2022-10-24T03:27:48.399Z,99806.97
2022-10-24T03:30:29.706Z,99806.50
2022-10-24T03:33:08.370Z,99809.75
2022-10-24T03:35:47.381Z,99808.75
2022-10-24T03:38:27.221Z,99806.91
2022-10-24T03:41:07.148Z,99810.25
2022-10-24T03:43:47.984Z,99807.94
2022-10-24T03:46:26.569Z,99800.31
2022-10-24T03:49:08.401Z,99799.03
2022-10-24T03:51:47.807Z,99804.38
2022-10-24T03:54:29.657Z,99799.44
2022-10-24T03:57:09.865Z,99806.78
2022-10-24T03:59:48.850Z,99818.56
2022-10-24T04:02:28.657Z,99812.59
2022-10-24T04:05:10.641Z,99806.31
2022-10-24T04:07:49.853Z,99807.53
2022-10-24T04:10:29.845Z,99804.13
2022-10-24T04:13:09.466Z,99799.63
2022-10-24T04:15:48.461Z,99802.59
2022-10-24T04:18:29.514Z,99790.28
2022-10-24T04:21:08.876Z,99790.28
2022-10-24T04:23:48.709Z,99792.31
2022-10-24T04:26:28.584Z,99797.59
2022-10-24T04:29:29.559Z,99798.78
2022-10-24T04:32:08.964Z,99797.50
2022-10-24T04:34:48.850Z,99788.41
2022-10-24T04:37:30.550Z,99785.50
2022-10-24T04:40:10.668Z,99795.44
2022-10-24T04:42:48.957Z,99796.25
2022-10-24T04:45:28.003Z,99806.28
2022-10-24T04:48:07.950Z,99800.25
2022-10-24T04:50:47.931Z,99800.63
2022-10-24T04:53:26.663Z,99801.34
2022-10-24T04:56:08.161Z,99814.22
2022-10-24T04:58:47.061Z,99820.38
2022-10-24T05:01:26.963Z,99817.81
2022-10-24T05:04:06.690Z,99816.53
2022-10-24T05:06:47.015Z,99820.56
2022-10-24T05:09:26.227Z,99821.13
2022-10-24T05:12:07.406Z,99823.34
2022-10-24T05:14:47.956Z,99810.41
2022-10-24T05:17:27.324Z,99819.09
2022-10-24T05:20:08.159Z,99817.81
2022-10-24T05:22:48.237Z,99806.91
2022-10-24T05:25:30.353Z,99801.75
2022-10-24T05:28:09.718Z,99791.13
2022-10-24T05:30:49.644Z,99787.81
2022-10-24T05:33:29.366Z,99787.97
2022-10-24T05:36:09.566Z,99791.00
2022-10-24T05:38:48.093Z,99784.84
2022-10-24T05:42:11.799Z,99780.72
2022-10-24T05:44:53.543Z,99778.16
2022-10-24T05:47:36.961Z,99773.56
2022-10-24T05:50:19.945Z,99771.28
2022-10-24T05:53:00.879Z,99389.28
2022-10-24T05:55:40.651Z,99366.78
2022-10-24T05:58:21.045Z,99359.41
2022-10-24T06:01:04.019Z,99358.56
2022-10-24T06:03:46.949Z,99350.97
2022-10-24T06:06:30.929Z,99321.88
2022-10-24T06:09:11.418Z,99330.03
2022-10-24T06:11:54.301Z,99315.09
2022-10-24T06:14:37.376Z,99290.41
2022-10-24T06:17:18.304Z,99244.81
2022-10-24T06:19:56.198Z,99192.88
2022-10-24T06:22:36.329Z,99167.03
2022-10-24T06:25:17.407Z,99140.63
2022-10-24T06:28:01.700Z,99140.44
2022-10-24T06:30:44.199Z,99143.50
2022-10-24T06:33:25.209Z,99135.28
2022-10-24T06:36:05.637Z,99154.78
2022-10-24T06:38:46.512Z,99155.63
2022-10-24T06:41:27.784Z,99164.66
2022-10-24T06:44:10.863Z,99168.75
2022-10-24T06:46:54.247Z,99204.44
2022-10-24T06:49:37.362Z,99205.25
2022-10-24T06:52:18.304Z,99236.03
2022-10-24T06:54:59.594Z,99250.03
2022-10-24T06:57:39.440Z,99268.25
2022-10-24T07:00:19.673Z,99295.81
2022-10-24T07:03:03.908Z,99306.47
2022-10-24T07:05:48.414Z,99337.03
2022-10-24T07:08:31.395Z,99355.13
2022-10-24T07:11:13.059Z,99371.16
2022-10-24T07:13:58.293Z,99395.81
2022-10-24T07:16:45.316Z,99422.09
2022-10-24T07:19:33.885Z,99434.66
2022-10-24T07:22:19.905Z,99449.84
2022-10-24T07:25:05.789Z,99475.97
2022-10-24T07:27:56.785Z,99494.06
2022-10-24T07:30:36.895Z,99513.81
2022-10-24T07:33:28.563Z,99535.38
2022-10-24T07:36:10.068Z,99556.38
2022-10-24T07:38:51.745Z,99580.00
2022-10-24T07:41:33.088Z,99596.47
2022-10-24T07:44:14.197Z,99610.03
2022-10-24T07:46:55.502Z,99629.78
2022-10-24T07:49:35.725Z,99650.19
2022-10-24T07:52:17.392Z,99637.59
2022-10-24T07:54:58.976Z,99652.84
2022-10-24T07:57:45.635Z,99681.88
2022-10-24T08:00:26.157Z,99680.41
2022-10-24T08:03:07.225Z,99686.19
2022-10-24T08:05:48.545Z,99702.66
2022-10-24T08:08:36.416Z,99869.94
2022-10-24T08:11:18.985Z,99870.13
2022-10-24T08:14:02.203Z,99874.47
2022-10-24T08:16:43.071Z,99859.84
2022-10-24T08:19:26.645Z,99853.03
2022-10-24T08:22:08.693Z,99859.44
2022-10-24T08:24:49.594Z,99856.72
2022-10-24T08:27:31.472Z,99848.88
2022-10-24T08:30:13.120Z,99845.16
2022-10-24T08:32:54.663Z,99821.81
2022-10-24T08:35:35.254Z,99827.34
2022-10-24T08:38:15.169Z,99818.28
2022-10-24T08:40:56.625Z,99829.22
2022-10-24T08:43:37.941Z,99821.34
2022-10-24T08:46:24.854Z,99823.19
2022-10-24T08:49:06.272Z,99820.72
2022-10-24T08:51:48.914Z,99831.44
2022-10-24T08:54:31.619Z,99835.75
2022-10-24T08:57:16.374Z,99836.34
2022-10-24T08:59:58.292Z,99836.75
2022-10-24T09:02:41.009Z,99829.50
2022-10-24T09:05:24.296Z,99832.97
2022-10-24T09:08:21.728Z,99842.66
2022-10-24T09:11:06.544Z,99845.28
2022-10-24T09:13:47.006Z,99849.00
2022-10-24T09:16:28.542Z,99845.44
2022-10-24T09:19:10.427Z,99843.56
2022-10-24T09:21:51.147Z,99844.94
2022-10-24T09:24:32.134Z,99862.00
2022-10-24T09:27:13.403Z,99873.09
2022-10-24T09:30:06.455Z,99894.97
2022-10-24T09:32:47.217Z,99907.72
2022-10-24T09:35:41.860Z,99912.38
2022-10-24T09:38:27.461Z,99920.34
2022-10-24T09:41:08.229Z,99939.31
2022-10-24T09:43:53.205Z,99946.69
2022-10-24T09:46:36.578Z,99954.06
2022-10-24T09:49:20.245Z,99953.75
2022-10-24T09:52:03.328Z,99957.59
2022-10-24T09:55:28.543Z,99979.19
2022-10-24T09:58:15.703Z,99995.63
2022-10-24T10:00:59.718Z,100005.38
2022-10-24T10:03:38.566Z,100000.34
2022-10-24T10:06:21.150Z,100018.16
2022-10-24T10:08:59.986Z,100027.13
2022-10-24T10:11:40.770Z,100033.88
2022-10-24T10:14:27.345Z,100045.28
2022-10-24T10:17:07.497Z,100079.44
2022-10-24T10:19:47.994Z,100076.53
2022-10-24T10:22:29.715Z,100079.38
2022-10-24T10:27:59.809Z,100084.78
2022-10-24T10:30:42.469Z,100098.41
2022-10-24T10:33:24.087Z,100104.84
2022-10-24T10:36:08.795Z,100092.59
2022-10-24T10:38:51.502Z,100096.34
2022-10-24T10:41:34.070Z,100100.81
2022-10-24T10:44:20.512Z,100091.75
2022-10-24T10:47:03.679Z,100100.34
2022-10-24T10:49:44.041Z,100113.38
2022-10-24T10:52:25.634Z,100112.88
2022-10-24T10:55:13.001Z,100117.72
2022-10-24T10:57:58.423Z,100123.28
2022-10-24T11:00:40.217Z,100132.44
2022-10-24T11:03:23.728Z,100136.91
2022-10-24T11:06:11.053Z,100151.91
2022-10-24T11:08:54.995Z,100152.97
2022-10-24T11:11:37.184Z,100152.59
2022-10-24T11:14:18.918Z,100160.06
2022-10-24T11:17:04.860Z,100151.22
2022-10-24T11:19:58.048Z,100155.47
2022-10-24T11:22:41.864Z,100154.66
2022-10-24T11:25:24.943Z,100160.16
2022-10-24T11:28:05.895Z,100171.75
2022-10-24T11:30:48.621Z,100167.19
2022-10-24T11:33:31.983Z,100177.13
2022-10-24T11:36:14.887Z,100172.25
2022-10-24T11:38:56.771Z,100171.22
2022-10-24T11:41:39.073Z,100170.31
2022-10-24T11:44:27.995Z,100188.72
2022-10-24T11:47:32.268Z,100189.03
2022-10-24T11:50:14.550Z,100189.88
2022-10-24T11:53:13.603Z,100183.94
2022-10-24T11:55:55.736Z,100192.84
2022-10-24T11:58:36.223Z,100194.72
2022-10-24T12:01:20.343Z,100192.91
2022-10-24T12:04:14.741Z,100198.75
2022-10-24T12:07:04.882Z,100198.75
2022-10-24T12:09:47.643Z,100198.59
2022-10-24T12:12:33.026Z,100188.44
2022-10-24T12:15:19.025Z,100193.66
2022-10-24T12:18:04.934Z,100184.53
2022-10-24T12:20:47.060Z,100190.66
2022-10-24T12:23:31.358Z,100186.22
2022-10-24T12:26:19.001Z,100185.94
2022-10-24T12:29:01.155Z,100185.56
2022-10-24T12:31:41.857Z,100198.38
2022-10-24T12:34:48.805Z,100211.84
2022-10-24T12:37:34.558Z,100213.19
2022-10-24T12:40:32.366Z,100213.91
2022-10-24T12:43:17.355Z,100217.63
2022-10-24T12:46:00.122Z,100232.16
2022-10-24T12:48:39.912Z,100229.59
2022-10-24T12:51:28.546Z,100229.00
2022-10-24T12:54:18.018Z,100227.41
2022-10-24T12:57:15.934Z,100241.50
2022-10-24T12:59:56.786Z,100241.16
2022-10-24T13:02:50.908Z,100237.72
2022-10-24T13:05:37.418Z,100237.50
2022-10-24T13:08:21.697Z,100230.94
2022-10-24T13:11:07.326Z,100227.41
2022-10-24T13:13:57.967Z,100231.31
2022-10-24T13:16:39.869Z,100242.34
2022-10-24T13:19:22.156Z,100243.25
2022-10-24T13:22:02.804Z,100250.13
2022-10-24T13:24:43.789Z,100235.13
2022-10-24T13:27:30.478Z,100232.47
2022-10-24T13:30:33.014Z,100237.41
2022-10-24T13:33:31.002Z,100234.13
2022-10-24T13:36:16.564Z,100237.56
2022-10-24T13:38:58.740Z,100224.16
2022-10-24T13:41:40.509Z,100231.41
2022-10-24T13:44:36.007Z,100211.00
2022-10-24T13:47:18.006Z,100235.09
2022-10-24T13:49:58.748Z,100248.16
2022-10-24T13:52:40.234Z,100244.63
2022-10-24T13:55:24.938Z,100237.44
2022-10-24T13:58:11.308Z,100222.56
2022-10-24T14:00:54.165Z,100203.34
2022-10-24T14:03:34.879Z,100206.47
2022-10-24T14:06:15.893Z,100196.09
2022-10-24T14:09:05.471Z,100197.56
2022-10-24T14:11:48.486Z,100197.00
2022-10-24T14:14:30.542Z,100192.63
2022-10-24T14:17:22.804Z,100191.41
2022-10-24T14:20:20.342Z,100197.84
2022-10-24T14:23:03.287Z,100213.34
2022-10-24T14:25:44.096Z,100206.97
2022-10-24T14:28:26.949Z,100212.75
2022-10-24T14:31:09.894Z,100200.59
2022-10-24T14:33:51.183Z,100207.03
2022-10-24T14:36:44.750Z,100211.16
2022-10-24T14:39:26.553Z,100208.66
2022-10-24T14:42:08.500Z,100205.59
2022-10-24T14:44:49.538Z,100200.22
2022-10-24T14:47:31.905Z,100195.88
2022-10-24T14:50:36.840Z,100203.31
2022-10-24T14:53:24.080Z,100205.78
2022-10-24T14:56:05.152Z,100198.38
2022-10-24T14:58:48.421Z,100208.06
2022-10-24T15:01:31.421Z,100213.66
2022-10-24T15:04:28.936Z,100216.56
2022-10-24T15:07:20.742Z,100205.41
2022-10-24T15:10:19.691Z,100213.25
2022-10-24T15:13:03.356Z,100215.31
2022-10-24T15:15:48.926Z,100200.25
2022-10-24T15:18:29.854Z,100207.66
2022-10-24T15:21:14.072Z,100213.22
2022-10-24T15:23:55.968Z,100216.97
2022-10-24T15:26:39.145Z,100217.34
2022-10-24T15:29:21.203Z,100205.78
2022-10-24T15:32:14.260Z,100216.72
2022-10-24T15:35:06.578Z,100211.94
2022-10-24T15:37:54.773Z,100210.25
2022-10-24T15:40:35.353Z,100219.53
2022-10-24T15:43:16.989Z,100212.72
2022-10-24T15:45:58.061Z,100201.13
2022-10-24T15:48:39.807Z,100209.38
2022-10-24T15:51:21.765Z,100207.50
2022-10-24T15:54:02.081Z,100204.78
2022-10-24T15:56:42.028Z,100209.94
2022-10-24T15:59:26.580Z,100204.56
2022-10-24T16:02:22.761Z,100214.19
2022-10-24T16:05:04.928Z,100209.22
2022-10-24T16:07:46.118Z,100202.41
2022-10-24T16:10:29.180Z,100196.19
2022-10-24T16:13:10.969Z,100183.19
2022-10-24T16:15:51.585Z,100192.66
2022-10-24T16:18:33.233Z,100185.78
2022-10-24T16:21:14.399Z,100176.06
2022-10-24T16:24:12.436Z,100180.75
2022-10-24T16:26:52.389Z,100182.97
2022-10-24T16:29:32.148Z,100182.53
2022-10-24T16:32:12.825Z,100171.00
2022-10-24T16:34:57.433Z,100170.75
2022-10-24T16:37:38.045Z,100166.03
2022-10-24T16:40:17.944Z,100175.72
2022-10-24T16:42:59.729Z,100174.06
2022-10-24T16:45:40.623Z,100172.03
2022-10-24T16:48:20.409Z,100181.28
2022-10-24T16:51:00.319Z,100176.47
2022-10-24T16:53:42.003Z,100176.69
2022-10-24T16:56:25.080Z,100182.19
2022-10-24T16:59:06.067Z,100180.78
2022-10-24T17:01:45.964Z,100179.53
2022-10-24T17:04:32.832Z,100182.41
2022-10-24T17:07:17.103Z,100183.16
2022-10-24T17:09:58.163Z,100174.13
2022-10-24T17:12:39.557Z,100174.69
2022-10-24T17:15:21.976Z,100178.78
2022-10-24T17:18:04.142Z,100181.47
2022-10-24T17:20:46.386Z,100195.88
2022-10-24T17:23:27.247Z,100190.72
2022-10-24T17:26:13.753Z,100197.09
2022-10-24T17:28:54.483Z,100202.00
2022-10-24T17:31:35.985Z,100199.31
2022-10-24T17:34:19.297Z,100212.06
2022-10-24T17:37:01.251Z,100209.56
2022-10-24T17:39:45.789Z,100212.25
2022-10-24T17:42:26.417Z,100214.91
2022-10-24T17:45:10.455Z,100215.94
2022-10-24T17:47:50.778Z,100217.09
2022-10-24T17:50:31.991Z,100212.97
2022-10-24T17:53:13.420Z,100220.81
2022-10-24T17:55:55.248Z,100224.88
2022-10-24T17:58:36.301Z,100233.09
2022-10-24T18:01:29.678Z,100224.78
2022-10-24T18:04:10.947Z,100233.66
2022-10-24T18:07:04.080Z,100235.06
2022-10-24T18:10:00.337Z,100237.47
2022-10-24T18:12:42.494Z,100243.84
2022-10-24T18:15:36.791Z,100243.22
2022-10-24T18:18:18.007Z,100242.31
2022-10-24T18:21:07.161Z,100243.50
2022-10-24T18:23:47.466Z,100239.38
2022-10-24T18:26:30.670Z,100242.81
2022-10-24T18:29:11.800Z,100246.03
2022-10-24T18:31:53.168Z,100256.91
2022-10-24T18:34:34.522Z,100265.84
2022-10-24T18:37:15.954Z,100264.09
2022-10-24T18:39:57.619Z,100275.16
2022-10-24T18:42:42.084Z,100268.16
2022-10-24T18:45:24.715Z,100267.50
2022-10-24T18:48:06.722Z,100266.88
2022-10-24T18:50:48.029Z,100264.59
2022-10-24T18:53:29.146Z,100261.09
2022-10-24T18:56:11.141Z,100257.41
2022-10-24T18:58:57.119Z,100255.56
2022-10-24T19:01:40.158Z,100255.75
2022-10-24T19:04:41.259Z,100251.22
2022-10-24T19:07:33.670Z,100249.56
2022-10-24T19:10:19.458Z,100249.94
2022-10-24T19:12:57.760Z,100245.78
2022-10-24T19:15:38.841Z,100244.50
2022-10-24T19:18:21.099Z,100237.88
2022-10-24T19:21:04.303Z,100237.41
2022-10-24T19:23:45.115Z,100238.13
2022-10-24T19:26:24.929Z,100238.50
2022-10-24T19:29:05.830Z,100245.06
2022-10-24T19:31:46.175Z,100248.28
2022-10-24T19:34:29.185Z,100242.69
2022-10-24T19:37:09.692Z,100240.34
2022-10-24T19:39:50.415Z,100244.88
2022-10-24T19:42:32.167Z,100252.03
2022-10-24T19:45:13.233Z,100255.53
2022-10-24T19:47:55.228Z,100261.06
2022-10-24T19:50:38.023Z,100258.41
2022-10-24T19:53:21.015Z,100260.06
2022-10-24T19:56:05.524Z,100262.91
2022-10-24T19:58:46.670Z,100269.44
2022-10-24T20:01:27.294Z,100269.81
2022-10-24T20:04:06.117Z,100271.22
2022-10-24T20:06:48.114Z,100272.91
2022-10-24T20:09:29.073Z,100285.25
2022-10-24T20:12:10.874Z,100283.97
2022-10-24T20:14:51.856Z,100292.53
2022-10-24T20:17:33.793Z,100293.06
2022-10-24T20:20:14.713Z,100288.91
2022-10-24T20:22:54.508Z,100294.78
2022-10-24T20:25:47.996Z,100293.69
2022-10-24T20:28:29.396Z,100297.53
2022-10-24T20:31:17.471Z,100305.91
2022-10-24T20:34:03.610Z,100301.25
2022-10-24T20:37:01.515Z,100305.31
2022-10-24T20:39:42.492Z,100310.31
2022-10-24T20:42:22.370Z,100309.66
2022-10-24T20:45:03.716Z,100315.34
2022-10-24T20:47:43.633Z,100312.66
2022-10-24T20:50:44.091Z,100316.88
2022-10-24T20:53:22.015Z,100318.72
2022-10-24T20:56:07.984Z,100321.91
2022-10-24T20:58:48.636Z,100324.59
2022-10-24T21:01:31.870Z,100331.22
2022-10-24T21:04:14.696Z,100339.69
2022-10-24T21:07:05.811Z,100347.41
2022-10-24T21:09:46.838Z,100345.75
2022-10-24T21:12:28.654Z,100349.06
2022-10-24T21:15:23.560Z,100359.44
2022-10-24T21:18:05.809Z,100362.09
2022-10-24T21:20:45.829Z,100365.78
2022-10-24T21:23:27.020Z,100360.13
2022-10-24T21:26:07.593Z,100369.13
2022-10-24T21:28:48.477Z,100373.66
2022-10-24T21:31:32.944Z,100370.63
2022-10-24T21:34:12.880Z,100371.66
2022-10-24T21:36:52.686Z,100373.50
2022-10-24T21:39:34.041Z,100369.53
2022-10-24T21:42:15.891Z,100358.88
2022-10-24T21:44:56.900Z,100361.72
2022-10-24T21:47:38.916Z,100354.72
2022-10-24T21:50:21.645Z,100357.88
2022-10-24T21:53:04.675Z,100351.53
2022-10-24T21:55:45.703Z,100356.84
2022-10-24T21:58:25.526Z,100360.19
2022-10-24T22:01:14.160Z,100368.81
2022-10-24T22:03:52.789Z,100373.31
2022-10-24T22:06:33.195Z,100372.16
2022-10-24T22:09:15.172Z,100374.16
2022-10-24T22:11:57.619Z,100378.97
2022-10-24T22:14:38.745Z,100382.63
2022-10-24T22:17:18.515Z,100386.13
2022-10-24T22:19:58.388Z,100394.13
2022-10-24T22:22:40.139Z,100395.47
2022-10-24T22:25:23.151Z,100389.44
2022-10-24T22:28:04.228Z,100382.59
2022-10-24T22:30:46.361Z,100384.75
2022-10-24T22:33:28.785Z,100382.06
2022-10-24T22:36:11.693Z,100376.38
2022-10-24T22:38:54.104Z,100375.56
2022-10-24T22:41:34.773Z,100372.22
2022-10-24T22:44:20.353Z,100373.50
2022-10-24T22:47:06.581Z,100378.00
2022-10-24T22:49:50.134Z,100377.66
2022-10-24T22:52:33.705Z,100377.50
2022-10-24T22:55:16.609Z,100380.00
2022-10-24T22:57:57.688Z,100375.78
2022-10-24T23:00:39.054Z,100386.13
2022-10-24T23:03:24.123Z,100391.75
2022-10-24T23:06:06.061Z,100392.88
2022-10-24T23:08:46.189Z,100385.16
2022-10-24T23:11:27.861Z,100386.66
2022-10-24T23:14:09.983Z,100394.97
2022-10-24T23:16:52.697Z,100386.13
2022-10-24T23:19:33.704Z,100388.44
2022-10-24T23:22:18.865Z,100387.91
2022-10-24T23:25:00.175Z,100391.41
2022-10-24T23:27:43.983Z,100387.53
2022-10-24T23:30:25.777Z,100393.06
2022-10-24T23:33:10.208Z,100383.56
2022-10-24T23:35:51.549Z,100376.38
2022-10-24T23:38:35.384Z,100382.09
2022-10-24T23:41:16.253Z,100380.44
2022-10-24T23:43:57.671Z,100388.44
2022-10-24T23:46:42.023Z,100396.81
2022-10-24T23:49:25.795Z,100398.09
2022-10-24T23:52:09.251Z,100394.13
2022-10-24T23:54:49.680Z,100391.09
2022-10-24T23:57:31.022Z,100397.81
